sensor_id;sensor_type;location;lat;lon;timestamp;temperature;humidity
41592;DHT22;28026;48.562;14.440;2023-04-15T00:00:23;3.20;99.90
41592;DHT22;28026;48.562;14.440;2023-04-15T00:02:53;2.40;99.90
41592;DHT22;28026;48.562;14.440;2023-04-15T00:05:24;2.30;99.90
41592;DHT22;28026;48.562;14.440;2023-04-15T00:07:55;2.80;99.90
41592;DHT22;28026;48.562;14.440;2023-04-15T00:10:26;3.70;99.90
41592;DHT22;28026;48.562;14.440;2023-04-15T00:12:57;2.10;99.90
41592;DHT22;28026;48.562;14.440;2023-04-15T00:15:28;2.70;99.90
41592;DHT22;28026;48.562;14.440;2023-04-15T00:17:59;2.00;99.90
41592;DHT22;28026;48.562;14.440;2023-04-15T00:20:29;3.30;99.90
41592;DHT22;28026;48.562;14.440;2023-04-15T00:23:01;2.00;99.90
41592;DHT22;28026;48.562;14.440;2023-04-15T00:25:33;1.90;99.90
41592;DHT22;28026;48.562;14.440;2023-04-15T00:28:04;1.90;99.90
41592;DHT22;28026;48.562;14.440;2023-04-15T00:30:34;1.70;99.90
41592;DHT22;28026;48.562;14.440;2023-04-15T00:33:05;2.90;99.90
41592;DHT22;28026;48.562;14.440;2023-04-15T00:35:37;1.60;99.90
41592;DHT22;28026;48.562;14.440;2023-04-15T00:38:08;1.60;99.90
41592;DHT22;28026;48.562;14.440;2023-04-15T00:40:38;1.40;99.90
41592;DHT22;28026;48.562;14.440;2023-04-15T00:43:10;1.50;99.90
41592;DHT22;28026;48.562;14.440;2023-04-15T00:45:41;2.40;99.90
41592;DHT22;28026;48.562;14.440;2023-04-15T00:48:12;1.40;99.90
41592;DHT22;28026;48.562;14.440;2023-04-15T00:50:43;1.30;99.90
41592;DHT22;28026;48.562;14.440;2023-04-15T00:53:14;1.20;99.90
41592;DHT22;28026;48.562;14.440;2023-04-15T00:55:45;2.00;99.90
41592;DHT22;28026;48.562;14.440;2023-04-15T00:58:16;1.10;99.90
41592;DHT22;28026;48.562;14.440;2023-04-15T01:00:47;0.90;99.90
41592;DHT22;28026;48.562;14.440;2023-04-15T01:03:18;0.90;99.90
41592;DHT22;28026;48.562;14.440;2023-04-15T01:05:50;0.90;99.90
41592;DHT22;28026;48.562;14.440;2023-04-15T01:08:27;1.30;99.90
41592;DHT22;28026;48.562;14.440;2023-04-15T01:11:00;0.90;99.90
41592;DHT22;28026;48.562;14.440;2023-04-15T01:13:32;0.90;99.90
41592;DHT22;28026;48.562;14.440;2023-04-15T01:16:04;0.90;99.90
41592;DHT22;28026;48.562;14.440;2023-04-15T01:18:36;0.90;99.90
41592;DHT22;28026;48.562;14.440;2023-04-15T01:21:07;1.00;99.90
41592;DHT22;28026;48.562;14.440;2023-04-15T01:23:39;1.00;99.90
41592;DHT22;28026;48.562;14.440;2023-04-15T01:26:09;1.00;99.90
41592;DHT22;28026;48.562;14.440;2023-04-15T01:28:41;1.10;99.90
41592;DHT22;28026;48.562;14.440;2023-04-15T01:31:13;1.10;99.90
41592;DHT22;28026;48.562;14.440;2023-04-15T01:33:44;1.60;99.90
41592;DHT22;28026;48.562;14.440;2023-04-15T01:36:16;1.10;99.90
41592;DHT22;28026;48.562;14.440;2023-04-15T01:38:47;1.10;99.90
41592;DHT22;28026;48.562;14.440;2023-04-15T01:41:27;1.20;99.90
41592;DHT22;28026;48.562;14.440;2023-04-15T01:43:58;1.10;99.90
41592;DHT22;28026;48.562;14.440;2023-04-15T01:46:29;1.00;99.90
41592;DHT22;28026;48.562;14.440;2023-04-15T01:49:00;1.00;99.90
41592;DHT22;28026;48.562;14.440;2023-04-15T01:51:31;1.00;99.90
41592;DHT22;28026;48.562;14.440;2023-04-15T01:54:02;1.10;99.90
41592;DHT22;28026;48.562;14.440;2023-04-15T01:56:33;1.00;99.90
41592;DHT22;28026;48.562;14.440;2023-04-15T01:59:04;1.40;99.90
41592;DHT22;28026;48.562;14.440;2023-04-15T02:01:35;1.00;99.90
41592;DHT22;28026;48.562;14.440;2023-04-15T02:04:06;1.00;99.90
41592;DHT22;28026;48.562;14.440;2023-04-15T02:06:37;1.10;99.90
41592;DHT22;28026;48.562;14.440;2023-04-15T02:09:08;1.20;99.90
41592;DHT22;28026;48.562;14.440;2023-04-15T02:11:39;1.20;99.90
41592;DHT22;28026;48.562;14.440;2023-04-15T02:14:10;1.30;99.90
41592;DHT22;28026;48.562;14.440;2023-04-15T02:16:41;1.90;99.90
41592;DHT22;28026;48.562;14.440;2023-04-15T02:19:12;1.40;99.90
41592;DHT22;28026;48.562;14.440;2023-04-15T02:21:43;1.50;99.90
41592;DHT22;28026;48.562;14.440;2023-04-15T02:24:13;1.50;99.90
41592;DHT22;28026;48.562;14.440;2023-04-15T02:26:44;1.40;99.90
41592;DHT22;28026;48.562;14.440;2023-04-15T02:29:15;1.50;99.90
41592;DHT22;28026;48.562;14.440;2023-04-15T02:31:46;1.40;99.90
41592;DHT22;28026;48.562;14.440;2023-04-15T02:34:17;1.50;99.90
41592;DHT22;28026;48.562;14.440;2023-04-15T02:36:48;1.90;99.90
41592;DHT22;28026;48.562;14.440;2023-04-15T02:39:20;1.50;99.90
41592;DHT22;28026;48.562;14.440;2023-04-15T02:41:51;2.20;99.90
41592;DHT22;28026;48.562;14.440;2023-04-15T02:44:22;1.50;99.90
41592;DHT22;28026;48.562;14.440;2023-04-15T02:46:54;1.60;99.90
41592;DHT22;28026;48.562;14.440;2023-04-15T02:49:24;1.60;99.90
41592;DHT22;28026;48.562;14.440;2023-04-15T02:51:55;2.50;99.90
41592;DHT22;28026;48.562;14.440;2023-04-15T02:54:27;1.40;99.90
41592;DHT22;28026;48.562;14.440;2023-04-15T02:56:58;1.60;99.90
41592;DHT22;28026;48.562;14.440;2023-04-15T02:59:31;1.60;99.90
41592;DHT22;28026;48.562;14.440;2023-04-15T03:02:01;1.60;99.90
41592;DHT22;28026;48.562;14.440;2023-04-15T03:04:33;1.60;99.90
41592;DHT22;28026;48.562;14.440;2023-04-15T03:07:03;1.50;99.90
41592;DHT22;28026;48.562;14.440;2023-04-15T03:09:34;1.70;99.90
41592;DHT22;28026;48.562;14.440;2023-04-15T03:12:05;1.70;99.90
41592;DHT22;28026;48.562;14.440;2023-04-15T03:14:36;1.60;99.90
41592;DHT22;28026;48.562;14.440;2023-04-15T03:17:07;1.60;99.90
41592;DHT22;28026;48.562;14.440;2023-04-15T03:19:38;2.90;99.90
41592;DHT22;28026;48.562;14.440;2023-04-15T03:22:09;1.70;99.90
41592;DHT22;28026;48.562;14.440;2023-04-15T03:24:40;1.80;99.90
41592;DHT22;28026;48.562;14.440;2023-04-15T03:27:10;1.80;99.90
41592;DHT22;28026;48.562;14.440;2023-04-15T03:29:42;1.60;99.90
41592;DHT22;28026;48.562;14.440;2023-04-15T03:32:13;1.60;99.90
41592;DHT22;28026;48.562;14.440;2023-04-15T03:34:44;1.60;99.90
41592;DHT22;28026;48.562;14.440;2023-04-15T03:37:15;1.80;99.90
41592;DHT22;28026;48.562;14.440;2023-04-15T03:39:46;1.70;99.90
41592;DHT22;28026;48.562;14.440;2023-04-15T03:42:17;1.70;99.90
41592;DHT22;28026;48.562;14.440;2023-04-15T03:44:47;2.30;99.90
41592;DHT22;28026;48.562;14.440;2023-04-15T03:47:18;3.20;99.90
41592;DHT22;28026;48.562;14.440;2023-04-15T03:49:49;1.70;99.90
41592;DHT22;28026;48.562;14.440;2023-04-15T03:52:20;1.80;99.90
41592;DHT22;28026;48.562;14.440;2023-04-15T03:54:51;1.70;99.90
41592;DHT22;28026;48.562;14.440;2023-04-15T03:57:22;2.00;99.90
41592;DHT22;28026;48.562;14.440;2023-04-15T03:59:52;1.80;99.90
41592;DHT22;28026;48.562;14.440;2023-04-15T04:02:23;1.80;99.90
41592;DHT22;28026;48.562;14.440;2023-04-15T04:04:54;1.90;99.90
41592;DHT22;28026;48.562;14.440;2023-04-15T04:07:25;1.90;99.90
41592;DHT22;28026;48.562;14.440;2023-04-15T04:09:56;2.10;99.90
41592;DHT22;28026;48.562;14.440;2023-04-15T04:12:27;2.00;99.90
41592;DHT22;28026;48.562;14.440;2023-04-15T04:14:58;2.40;99.90
41592;DHT22;28026;48.562;14.440;2023-04-15T04:17:29;2.00;99.90
41592;DHT22;28026;48.562;14.440;2023-04-15T04:20:00;2.00;99.90
41592;DHT22;28026;48.562;14.440;2023-04-15T04:22:30;2.00;99.90
41592;DHT22;28026;48.562;14.440;2023-04-15T04:25:01;2.50;99.90
41592;DHT22;28026;48.562;14.440;2023-04-15T04:27:32;2.00;99.90
41592;DHT22;28026;48.562;14.440;2023-04-15T04:30:03;1.90;99.90
41592;DHT22;28026;48.562;14.440;2023-04-15T04:32:36;2.00;99.90
41592;DHT22;28026;48.562;14.440;2023-04-15T04:35:07;1.90;99.90
41592;DHT22;28026;48.562;14.440;2023-04-15T04:37:38;2.00;99.90
41592;DHT22;28026;48.562;14.440;2023-04-15T04:40:09;2.00;99.90
41592;DHT22;28026;48.562;14.440;2023-04-15T04:42:40;2.20;99.90
41592;DHT22;28026;48.562;14.440;2023-04-15T04:45:11;2.10;99.90
41592;DHT22;28026;48.562;14.440;2023-04-15T04:47:42;2.00;99.90
41592;DHT22;28026;48.562;14.440;2023-04-15T04:50:13;2.30;99.90
41592;DHT22;28026;48.562;14.440;2023-04-15T04:52:44;2.20;99.90
41592;DHT22;28026;48.562;14.440;2023-04-15T04:55:15;2.30;99.90
41592;DHT22;28026;48.562;14.440;2023-04-15T04:57:46;2.50;99.90
41592;DHT22;28026;48.562;14.440;2023-04-15T05:00:17;2.40;99.90
41592;DHT22;28026;48.562;14.440;2023-04-15T05:02:48;2.40;99.90
41592;DHT22;28026;48.562;14.440;2023-04-15T05:05:19;2.40;99.90
41592;DHT22;28026;48.562;14.440;2023-04-15T05:07:50;3.10;99.90
41592;DHT22;28026;48.562;14.440;2023-04-15T05:10:21;2.30;99.90
41592;DHT22;28026;48.562;14.440;2023-04-15T05:12:52;2.30;99.90
41592;DHT22;28026;48.562;14.440;2023-04-15T05:15:23;2.20;99.90
41592;DHT22;28026;48.562;14.440;2023-04-15T05:17:54;2.20;99.90
41592;DHT22;28026;48.562;14.440;2023-04-15T05:20:24;2.20;99.90
41592;DHT22;28026;48.562;14.440;2023-04-15T05:22:55;2.30;99.90
41592;DHT22;28026;48.562;14.440;2023-04-15T05:25:26;3.80;99.90
41592;DHT22;28026;48.562;14.440;2023-04-15T05:27:57;2.10;99.90
41592;DHT22;28026;48.562;14.440;2023-04-15T05:30:27;5.40;99.90
41592;DHT22;28026;48.562;14.440;2023-04-15T05:32:58;1.90;99.90
41592;DHT22;28026;48.562;14.440;2023-04-15T05:35:29;2.00;99.90
41592;DHT22;28026;48.562;14.440;2023-04-15T05:38:00;2.50;99.90
41592;DHT22;28026;48.562;14.440;2023-04-15T05:40:31;2.60;99.90
41592;DHT22;28026;48.562;14.440;2023-04-15T05:43:01;2.30;99.90
41592;DHT22;28026;48.562;14.440;2023-04-15T05:45:32;2.20;99.90
41592;DHT22;28026;48.562;14.440;2023-04-15T05:48:03;2.30;99.90
41592;DHT22;28026;48.562;14.440;2023-04-15T05:50:34;2.30;99.90
41592;DHT22;28026;48.562;14.440;2023-04-15T05:53:05;3.60;99.90
41592;DHT22;28026;48.562;14.440;2023-04-15T05:55:36;2.40;99.90
41592;DHT22;28026;48.562;14.440;2023-04-15T05:58:07;2.40;99.90
41592;DHT22;28026;48.562;14.440;2023-04-15T06:00:38;3.40;99.90
41592;DHT22;28026;48.562;14.440;2023-04-15T06:03:09;2.80;99.90
41592;DHT22;28026;48.562;14.440;2023-04-15T06:05:40;3.70;99.90
41592;DHT22;28026;48.562;14.440;2023-04-15T06:08:11;3.40;99.90
41592;DHT22;28026;48.562;14.440;2023-04-15T06:10:42;3.00;99.90
41592;DHT22;28026;48.562;14.440;2023-04-15T06:13:13;3.10;99.90
41592;DHT22;28026;48.562;14.440;2023-04-15T06:15:44;3.00;99.90
41592;DHT22;28026;48.562;14.440;2023-04-15T06:18:14;2.90;99.90
41592;DHT22;28026;48.562;14.440;2023-04-15T06:20:45;3.00;99.90
41592;DHT22;28026;48.562;14.440;2023-04-15T06:23:16;3.10;99.90
41592;DHT22;28026;48.562;14.440;2023-04-15T06:25:47;3.10;99.90
41592;DHT22;28026;48.562;14.440;2023-04-15T06:28:17;3.10;99.90
41592;DHT22;28026;48.562;14.440;2023-04-15T06:30:48;3.10;99.90
41592;DHT22;28026;48.562;14.440;2023-04-15T06:33:20;3.10;99.90
41592;DHT22;28026;48.562;14.440;2023-04-15T06:35:50;3.30;99.90
41592;DHT22;28026;48.562;14.440;2023-04-15T06:38:21;3.00;99.90
41592;DHT22;28026;48.562;14.440;2023-04-15T06:40:52;3.00;99.90
41592;DHT22;28026;48.562;14.440;2023-04-15T06:43:23;3.00;99.90
41592;DHT22;28026;48.562;14.440;2023-04-15T06:45:54;3.00;99.90
41592;DHT22;28026;48.562;14.440;2023-04-15T06:48:24;2.90;99.90
41592;DHT22;28026;48.562;14.440;2023-04-15T06:50:56;2.80;99.90
41592;DHT22;28026;48.562;14.440;2023-04-15T06:53:28;3.10;99.90
41592;DHT22;28026;48.562;14.440;2023-04-15T06:55:58;3.10;99.90
41592;DHT22;28026;48.562;14.440;2023-04-15T06:58:29;3.10;99.90
41592;DHT22;28026;48.562;14.440;2023-04-15T07:01:00;3.60;99.90
41592;DHT22;28026;48.562;14.440;2023-04-15T07:03:32;5.60;99.90
41592;DHT22;28026;48.562;14.440;2023-04-15T07:06:03;3.10;99.90
41592;DHT22;28026;48.562;14.440;2023-04-15T07:08:36;3.00;99.90
41592;DHT22;28026;48.562;14.440;2023-04-15T07:11:07;3.00;99.90
41592;DHT22;28026;48.562;14.440;2023-04-15T07:13:38;3.10;99.90
41592;DHT22;28026;48.562;14.440;2023-04-15T07:16:08;3.60;99.90
41592;DHT22;28026;48.562;14.440;2023-04-15T07:18:39;3.40;99.90
41592;DHT22;28026;48.562;14.440;2023-04-15T07:21:10;3.30;99.90
41592;DHT22;28026;48.562;14.440;2023-04-15T07:23:41;3.30;99.90
41592;DHT22;28026;48.562;14.440;2023-04-15T07:26:11;3.30;99.90
41592;DHT22;28026;48.562;14.440;2023-04-15T07:28:43;3.70;99.90
41592;DHT22;28026;48.562;14.440;2023-04-15T07:31:15;3.50;99.90
41592;DHT22;28026;48.562;14.440;2023-04-15T07:33:46;3.20;99.90
41592;DHT22;28026;48.562;14.440;2023-04-15T07:36:17;4.00;99.90
41592;DHT22;28026;48.562;14.440;2023-04-15T07:38:48;3.10;99.90
41592;DHT22;28026;48.562;14.440;2023-04-15T07:41:18;3.20;99.90
41592;DHT22;28026;48.562;14.440;2023-04-15T07:43:50;3.30;99.90
41592;DHT22;28026;48.562;14.440;2023-04-15T07:46:21;3.30;99.90
41592;DHT22;28026;48.562;14.440;2023-04-15T07:48:53;3.30;99.90
41592;DHT22;28026;48.562;14.440;2023-04-15T07:51:24;3.40;99.90
41592;DHT22;28026;48.562;14.440;2023-04-15T07:53:55;3.40;99.90
41592;DHT22;28026;48.562;14.440;2023-04-15T07:56:26;3.40;99.90
41592;DHT22;28026;48.562;14.440;2023-04-15T07:58:57;3.40;99.90
41592;DHT22;28026;48.562;14.440;2023-04-15T08:01:28;3.30;99.90
41592;DHT22;28026;48.562;14.440;2023-04-15T08:03:58;3.50;99.90
41592;DHT22;28026;48.562;14.440;2023-04-15T08:06:29;4.40;99.90
41592;DHT22;28026;48.562;14.440;2023-04-15T08:09:00;3.40;99.90
41592;DHT22;28026;48.562;14.440;2023-04-15T08:11:31;3.10;99.90
41592;DHT22;28026;48.562;14.440;2023-04-15T08:14:02;2.70;99.90
41592;DHT22;28026;48.562;14.440;2023-04-15T08:16:33;3.20;99.90
41592;DHT22;28026;48.562;14.440;2023-04-15T08:19:04;2.90;99.90
41592;DHT22;28026;48.562;14.440;2023-04-15T08:21:35;3.00;99.90
41592;DHT22;28026;48.562;14.440;2023-04-15T08:24:05;2.90;99.90
41592;DHT22;28026;48.562;14.440;2023-04-15T08:26:37;2.90;99.90
41592;DHT22;28026;48.562;14.440;2023-04-15T08:29:07;3.70;99.90
41592;DHT22;28026;48.562;14.440;2023-04-15T08:31:38;3.70;99.90
41592;DHT22;28026;48.562;14.440;2023-04-15T08:34:10;3.50;99.90
41592;DHT22;28026;48.562;14.440;2023-04-15T08:36:41;3.30;99.90
41592;DHT22;28026;48.562;14.440;2023-04-15T08:39:12;3.40;99.90
41592;DHT22;28026;48.562;14.440;2023-04-15T08:42:02;3.60;99.90
41592;DHT22;28026;48.562;14.440;2023-04-15T08:44:36;3.50;99.90
41592;DHT22;28026;48.562;14.440;2023-04-15T08:47:09;3.40;99.90
41592;DHT22;28026;48.562;14.440;2023-04-15T08:49:46;3.30;99.90
41592;DHT22;28026;48.562;14.440;2023-04-15T08:52:26;3.50;99.90
41592;DHT22;28026;48.562;14.440;2023-04-15T08:54:57;3.60;99.90
41592;DHT22;28026;48.562;14.440;2023-04-15T08:57:31;3.70;99.90
41592;DHT22;28026;48.562;14.440;2023-04-15T09:00:03;3.90;99.90
41592;DHT22;28026;48.562;14.440;2023-04-15T09:02:34;3.70;99.90
41592;DHT22;28026;48.562;14.440;2023-04-15T09:05:06;5.10;99.90
41592;DHT22;28026;48.562;14.440;2023-04-15T09:07:37;4.10;99.90
41592;DHT22;28026;48.562;14.440;2023-04-15T09:10:08;4.00;99.90
41592;DHT22;28026;48.562;14.440;2023-04-15T09:12:40;4.30;99.90
41592;DHT22;28026;48.562;14.440;2023-04-15T09:15:10;4.30;99.90
41592;DHT22;28026;48.562;14.440;2023-04-15T09:17:42;4.40;99.90
41592;DHT22;28026;48.562;14.440;2023-04-15T09:20:14;4.30;99.90
41592;DHT22;28026;48.562;14.440;2023-04-15T09:22:48;4.40;99.90
41592;DHT22;28026;48.562;14.440;2023-04-15T09:27:51;4.50;99.90
41592;DHT22;28026;48.562;14.440;2023-04-15T09:30:28;4.60;99.90
41592;DHT22;28026;48.562;14.440;2023-04-15T09:33:00;4.60;99.90
41592;DHT22;28026;48.562;14.440;2023-04-15T09:35:34;4.50;99.90
41592;DHT22;28026;48.562;14.440;2023-04-15T09:38:06;4.60;99.90
41592;DHT22;28026;48.562;14.440;2023-04-15T09:40:39;5.50;99.90
41592;DHT22;28026;48.562;14.440;2023-04-15T09:43:11;4.50;99.90
41592;DHT22;28026;48.562;14.440;2023-04-15T09:45:52;4.50;99.90
41592;DHT22;28026;48.562;14.440;2023-04-15T09:48:23;4.70;99.90
41592;DHT22;28026;48.562;14.440;2023-04-15T09:51:00;4.90;99.90
41592;DHT22;28026;48.562;14.440;2023-04-15T09:53:33;4.70;99.90
41592;DHT22;28026;48.562;14.440;2023-04-15T09:56:05;4.90;99.90
41592;DHT22;28026;48.562;14.440;2023-04-15T09:58:38;4.80;99.90
41592;DHT22;28026;48.562;14.440;2023-04-15T10:01:10;4.70;99.90
41592;DHT22;28026;48.562;14.440;2023-04-15T10:03:41;4.70;99.90
41592;DHT22;28026;48.562;14.440;2023-04-15T10:06:14;5.40;99.90
41592;DHT22;28026;48.562;14.440;2023-04-15T10:08:46;4.70;99.90
41592;DHT22;28026;48.562;14.440;2023-04-15T10:11:17;4.70;99.90
41592;DHT22;28026;48.562;14.440;2023-04-15T10:13:50;5.70;99.90
41592;DHT22;28026;48.562;14.440;2023-04-15T10:16:22;4.90;99.90
41592;DHT22;28026;48.562;14.440;2023-04-15T10:19:00;4.90;99.90
41592;DHT22;28026;48.562;14.440;2023-04-15T10:21:34;5.00;99.90
41592;DHT22;28026;48.562;14.440;2023-04-15T10:24:07;5.10;99.90
41592;DHT22;28026;48.562;14.440;2023-04-15T10:26:38;5.10;99.90
41592;DHT22;28026;48.562;14.440;2023-04-15T10:29:10;5.10;99.90
41592;DHT22;28026;48.562;14.440;2023-04-15T10:31:41;5.00;99.90
41592;DHT22;28026;48.562;14.440;2023-04-15T10:34:13;5.00;99.90
41592;DHT22;28026;48.562;14.440;2023-04-15T10:36:45;5.00;99.90
41592;DHT22;28026;48.562;14.440;2023-04-15T10:44:41;5.40;99.90
41592;DHT22;28026;48.562;14.440;2023-04-15T10:47:15;5.50;99.90
41592;DHT22;28026;48.562;14.440;2023-04-15T10:49:50;5.50;99.90
41592;DHT22;28026;48.562;14.440;2023-04-15T10:52:27;5.50;99.90
41592;DHT22;28026;48.562;14.440;2023-04-15T10:57:43;4.70;99.90
41592;DHT22;28026;48.562;14.440;2023-04-15T11:00:15;4.70;99.90
41592;DHT22;28026;48.562;14.440;2023-04-15T11:02:52;4.50;99.90
41592;DHT22;28026;48.562;14.440;2023-04-15T11:05:47;4.70;99.90
41592;DHT22;28026;48.562;14.440;2023-04-15T11:08:19;4.50;99.90
41592;DHT22;28026;48.562;14.440;2023-04-15T11:14:39;4.10;99.90
41592;DHT22;28026;48.562;14.440;2023-04-15T11:17:12;4.30;99.90
41592;DHT22;28026;48.562;14.440;2023-04-15T11:19:43;4.50;99.90
41592;DHT22;28026;48.562;14.440;2023-04-15T11:22:14;4.30;99.90
41592;DHT22;28026;48.562;14.440;2023-04-15T11:24:48;4.60;99.90
41592;DHT22;28026;48.562;14.440;2023-04-15T11:27:22;4.20;99.90
41592;DHT22;28026;48.562;14.440;2023-04-15T11:29:53;4.00;99.90
41592;DHT22;28026;48.562;14.440;2023-04-15T11:32:24;3.80;99.90
41592;DHT22;28026;48.562;14.440;2023-04-15T11:34:55;3.80;99.90
41592;DHT22;28026;48.562;14.440;2023-04-15T11:37:29;3.80;99.90
41592;DHT22;28026;48.562;14.440;2023-04-15T11:40:01;4.00;99.90
41592;DHT22;28026;48.562;14.440;2023-04-15T11:42:33;3.90;99.90
41592;DHT22;28026;48.562;14.440;2023-04-15T11:45:13;4.00;99.90
41592;DHT22;28026;48.562;14.440;2023-04-15T11:47:45;4.00;99.90
41592;DHT22;28026;48.562;14.440;2023-04-15T11:52:52;4.20;99.90
41592;DHT22;28026;48.562;14.440;2023-04-15T11:55:24;4.60;99.90
41592;DHT22;28026;48.562;14.440;2023-04-15T11:58:11;4.60;99.90
41592;DHT22;28026;48.562;14.440;2023-04-15T12:00:53;4.80;99.90
41592;DHT22;28026;48.562;14.440;2023-04-15T12:03:28;4.90;99.90
41592;DHT22;28026;48.562;14.440;2023-04-15T12:11:48;4.90;99.90
41592;DHT22;28026;48.562;14.440;2023-04-15T12:14:30;4.90;99.90
41592;DHT22;28026;48.562;14.440;2023-04-15T12:17:03;5.40;99.90
41592;DHT22;28026;48.562;14.440;2023-04-15T12:19:40;5.20;99.90
41592;DHT22;28026;48.562;14.440;2023-04-15T12:22:13;5.20;99.90
41592;DHT22;28026;48.562;14.440;2023-04-15T12:24:45;6.20;99.90
41592;DHT22;28026;48.562;14.440;2023-04-15T12:27:18;4.90;99.90
41592;DHT22;28026;48.562;14.440;2023-04-15T12:29:48;5.00;99.90
41592;DHT22;28026;48.562;14.440;2023-04-15T12:32:19;5.60;99.90
41592;DHT22;28026;48.562;14.440;2023-04-15T12:34:51;5.10;99.90
41592;DHT22;28026;48.562;14.440;2023-04-15T12:37:26;5.10;99.90
41592;DHT22;28026;48.562;14.440;2023-04-15T12:39:56;5.20;99.90
41592;DHT22;28026;48.562;14.440;2023-04-15T12:42:27;6.20;99.90
41592;DHT22;28026;48.562;14.440;2023-04-15T12:44:58;5.10;99.90
41592;DHT22;28026;48.562;14.440;2023-04-15T12:47:29;5.20;99.90
41592;DHT22;28026;48.562;14.440;2023-04-15T12:50:00;5.40;99.90
41592;DHT22;28026;48.562;14.440;2023-04-15T12:52:31;5.40;99.90
41592;DHT22;28026;48.562;14.440;2023-04-15T12:55:02;5.40;99.90
41592;DHT22;28026;48.562;14.440;2023-04-15T12:57:34;5.30;99.90
41592;DHT22;28026;48.562;14.440;2023-04-15T13:00:04;5.20;99.90
41592;DHT22;28026;48.562;14.440;2023-04-15T13:02:37;5.30;99.90
41592;DHT22;28026;48.562;14.440;2023-04-15T13:05:08;5.40;99.90
41592;DHT22;28026;48.562;14.440;2023-04-15T13:07:40;5.70;99.90
41592;DHT22;28026;48.562;14.440;2023-04-15T13:10:11;5.70;99.90
41592;DHT22;28026;48.562;14.440;2023-04-15T13:12:42;5.70;99.90
41592;DHT22;28026;48.562;14.440;2023-04-15T13:15:15;5.80;99.90
41592;DHT22;28026;48.562;14.440;2023-04-15T13:17:49;5.70;99.90
41592;DHT22;28026;48.562;14.440;2023-04-15T13:20:21;5.50;99.90
41592;DHT22;28026;48.562;14.440;2023-04-15T13:22:52;5.40;99.90
41592;DHT22;28026;48.562;14.440;2023-04-15T13:25:24;8.30;99.90
41592;DHT22;28026;48.562;14.440;2023-04-15T13:27:55;5.30;99.90
41592;DHT22;28026;48.562;14.440;2023-04-15T13:30:26;6.10;99.90
41592;DHT22;28026;48.562;14.440;2023-04-15T13:32:57;5.00;99.90
41592;DHT22;28026;48.562;14.440;2023-04-15T13:35:28;4.80;99.90
41592;DHT22;28026;48.562;14.440;2023-04-15T13:37:59;4.80;99.90
41592;DHT22;28026;48.562;14.440;2023-04-15T13:40:30;4.70;99.90
41592;DHT22;28026;48.562;14.440;2023-04-15T13:43:01;4.60;99.90
41592;DHT22;28026;48.562;14.440;2023-04-15T13:45:32;5.10;99.90
41592;DHT22;28026;48.562;14.440;2023-04-15T13:48:03;6.10;99.90
41592;DHT22;28026;48.562;14.440;2023-04-15T13:50:34;4.50;99.90
41592;DHT22;28026;48.562;14.440;2023-04-15T13:53:05;4.50;99.90
41592;DHT22;28026;48.562;14.440;2023-04-15T13:55:36;5.10;99.90
41592;DHT22;28026;48.562;14.440;2023-04-15T13:58:10;6.60;99.90
41592;DHT22;28026;48.562;14.440;2023-04-15T14:00:41;4.70;99.90
41592;DHT22;28026;48.562;14.440;2023-04-15T14:03:12;4.80;99.90
41592;DHT22;28026;48.562;14.440;2023-04-15T14:05:43;7.30;99.90
41592;DHT22;28026;48.562;14.440;2023-04-15T14:08:14;5.00;99.90
41592;DHT22;28026;48.562;14.440;2023-04-15T14:10:45;5.10;99.90
41592;DHT22;28026;48.562;14.440;2023-04-15T14:13:17;5.30;99.90
41592;DHT22;28026;48.562;14.440;2023-04-15T14:15:48;5.60;99.90
41592;DHT22;28026;48.562;14.440;2023-04-15T14:18:19;5.80;99.90
41592;DHT22;28026;48.562;14.440;2023-04-15T14:20:51;5.90;99.90
41592;DHT22;28026;48.562;14.440;2023-04-15T14:23:22;6.20;99.90
41592;DHT22;28026;48.562;14.440;2023-04-15T14:25:53;6.10;99.90
41592;DHT22;28026;48.562;14.440;2023-04-15T14:28:24;6.20;99.90
41592;DHT22;28026;48.562;14.440;2023-04-15T14:30:54;6.40;99.90
41592;DHT22;28026;48.562;14.440;2023-04-15T14:33:25;6.80;99.90
41592;DHT22;28026;48.562;14.440;2023-04-15T14:35:56;6.80;99.90
41592;DHT22;28026;48.562;14.440;2023-04-15T14:38:27;6.50;99.90
41592;DHT22;28026;48.562;14.440;2023-04-15T14:40:58;6.10;99.90
41592;DHT22;28026;48.562;14.440;2023-04-15T14:43:28;6.00;99.90
41592;DHT22;28026;48.562;14.440;2023-04-15T14:45:59;5.90;99.90
41592;DHT22;28026;48.562;14.440;2023-04-15T14:48:31;5.90;99.90
41592;DHT22;28026;48.562;14.440;2023-04-15T14:51:02;6.00;99.90
41592;DHT22;28026;48.562;14.440;2023-04-15T14:53:33;6.00;99.90
41592;DHT22;28026;48.562;14.440;2023-04-15T14:56:04;6.60;99.90
41592;DHT22;28026;48.562;14.440;2023-04-15T14:58:35;5.70;99.90
41592;DHT22;28026;48.562;14.440;2023-04-15T15:01:05;5.50;99.90
41592;DHT22;28026;48.562;14.440;2023-04-15T15:03:37;5.50;99.90
41592;DHT22;28026;48.562;14.440;2023-04-15T15:06:08;5.40;99.90
41592;DHT22;28026;48.562;14.440;2023-04-15T15:08:39;5.20;99.90
41592;DHT22;28026;48.562;14.440;2023-04-15T15:11:10;5.10;99.90
41592;DHT22;28026;48.562;14.440;2023-04-15T15:13:41;5.20;99.90
41592;DHT22;28026;48.562;14.440;2023-04-15T15:16:11;5.20;99.90
41592;DHT22;28026;48.562;14.440;2023-04-15T15:18:42;5.00;99.90
41592;DHT22;28026;48.562;14.440;2023-04-15T15:21:13;6.00;99.90
41592;DHT22;28026;48.562;14.440;2023-04-15T15:23:44;5.10;99.90
41592;DHT22;28026;48.562;14.440;2023-04-15T15:26:15;5.10;99.90
41592;DHT22;28026;48.562;14.440;2023-04-15T15:28:46;5.50;99.90
41592;DHT22;28026;48.562;14.440;2023-04-15T15:31:18;4.80;99.90
41592;DHT22;28026;48.562;14.440;2023-04-15T15:33:49;4.80;99.90
41592;DHT22;28026;48.562;14.440;2023-04-15T15:36:21;5.00;99.90
41592;DHT22;28026;48.562;14.440;2023-04-15T15:38:51;4.90;99.90
41592;DHT22;28026;48.562;14.440;2023-04-15T15:41:22;5.00;99.90
41592;DHT22;28026;48.562;14.440;2023-04-15T15:43:54;5.00;99.90
41592;DHT22;28026;48.562;14.440;2023-04-15T15:46:25;5.60;99.90
41592;DHT22;28026;48.562;14.440;2023-04-15T15:48:57;4.90;99.90
41592;DHT22;28026;48.562;14.440;2023-04-15T15:51:28;4.80;99.90
41592;DHT22;28026;48.562;14.440;2023-04-15T15:53:59;4.70;99.90
41592;DHT22;28026;48.562;14.440;2023-04-15T15:56:30;4.70;99.90
41592;DHT22;28026;48.562;14.440;2023-04-15T15:59:01;4.70;99.90
41592;DHT22;28026;48.562;14.440;2023-04-15T16:01:31;4.90;99.90
41592;DHT22;28026;48.562;14.440;2023-04-15T16:04:02;4.80;99.90
41592;DHT22;28026;48.562;14.440;2023-04-15T16:06:33;4.70;99.90
41592;DHT22;28026;48.562;14.440;2023-04-15T16:09:04;5.10;99.90
41592;DHT22;28026;48.562;14.440;2023-04-15T16:11:35;4.70;99.90
41592;DHT22;28026;48.562;14.440;2023-04-15T16:14:06;4.60;99.90
41592;DHT22;28026;48.562;14.440;2023-04-15T16:16:39;4.70;99.90
41592;DHT22;28026;48.562;14.440;2023-04-15T16:19:10;4.80;99.90